Time;durP1;ratioP1;P1;durP2;ratioP2;P2;SDS_P1;SDS_P2;PMS_P1;PMS_P2;Temp;Humidity;BMP_temperature;BMP_pressure;BME280_temperature;BME280_humidity;BME280_pressure;Samples;Min_cycle;Max_cycle;Signal;HPM_P1;HPM_P2
2022/03/27 00:01:00;;;;;;;0.10;0.10;;;6.30;99.90;;;;;;5055337;28;20053;-80
2022/03/27 00:03:27;;;;;;;0.10;0.10;;;6.30;99.90;;;;;;5054686;28;20106;-79
2022/03/27 00:05:54;;;;;;;0.10;0.10;;;6.30;99.90;;;;;;5071418;28;20497;-79
2022/03/27 00:08:21;;;;;;;0.20;0.20;;;6.40;99.90;;;;;;5043097;28;20048;-81
2022/03/27 00:13:32;;;;;;;0.10;0.10;;;6.70;99.90;;;;;;5096967;28;20040;-79
2022/03/27 00:15:59;;;;;;;0.10;0.10;;;6.40;99.90;;;;;;5095191;28;20043;-80
2022/03/27 00:18:26;;;;;;;0.10;0.10;;;6.50;99.90;;;;;;5061558;28;20508;-81
2022/03/27 00:20:53;;;;;;;0.10;0.10;;;6.50;99.90;;;;;;5077654;28;20047;-79
2022/03/27 00:23:20;;;;;;;0.10;0.10;;;6.50;99.90;;;;;;5061759;28;20396;-79
2022/03/27 00:25:48;;;;;;;0.10;0.10;;;6.50;99.90;;;;;;5111106;28;20043;-80
2022/03/27 00:28:15;;;;;;;0.10;0.10;;;6.50;99.90;;;;;;5111182;28;20047;-80
2022/03/27 00:30:42;;;;;;;0.10;0.10;;;6.50;99.90;;;;;;5094053;28;20474;-80
2022/03/27 00:33:08;;;;;;;0.10;0.10;;;6.50;99.90;;;;;;5061678;28;20040;-80
2022/03/27 00:35:36;;;;;;;0.30;0.30;;;6.50;99.90;;;;;;5077855;28;20396;-80
2022/03/27 00:38:03;;;;;;;0.10;0.10;;;6.50;99.90;;;;;;5094266;28;20072;-79
2022/03/27 00:40:30;;;;;;;0.10;0.10;;;6.50;99.90;;;;;;5111348;28;20082;-80
2022/03/27 00:42:56;;;;;;;0.20;0.20;;;6.50;99.90;;;;;;5077485;28;20967;-80
2022/03/27 00:45:23;;;;;;;0.10;0.10;;;6.50;99.90;;;;;;5110843;28;20067;-79
2022/03/27 00:47:50;;;;;;;0.10;0.10;;;6.50;99.90;;;;;;5077394;28;20123;-80
2022/03/27 00:50:16;;;;;;;0.10;0.10;;;6.50;99.90;;;;;;5077405;28;20071;-80
2022/03/27 00:52:43;;;;;;;0.10;0.10;;;6.50;99.90;;;;;;5076997;28;20047;-79
2022/03/27 00:55:10;;;;;;;0.10;0.10;;;6.70;99.90;;;;;;5077814;28;20090;-80
2022/03/27 00:57:36;;;;;;;0.10;0.10;;;6.50;99.90;;;;;;5110591;28;20970;-80
2022/03/27 01:00:09;;;;;;;0.10;0.10;;;6.50;99.90;;;;;;5094348;28;20464;-80
2022/03/27 01:02:36;;;;;;;0.10;0.10;;;6.50;99.90;;;;;;5076945;28;20051;-80
2022/03/27 01:05:13;;;;;;;0.10;0.10;;;7.00;99.90;;;;;;5077553;28;20036;-80
2022/03/27 01:07:40;;;;;;;0.10;0.10;;;6.60;99.90;;;;;;5093638;28;20047;-79
2022/03/27 01:10:08;;;;;;;0.15;0.15;;;6.60;99.90;;;;;;5110261;28;20056;-80
2022/03/27 01:12:42;;;;;;;0.10;0.10;;;6.60;99.90;;;;;;5094162;28;20085;-80
2022/03/27 01:15:31;;;;;;;0.10;0.10;;;6.80;99.90;;;;;;5093931;28;20040;-79
2022/03/27 01:17:57;;;;;;;0.10;0.10;;;6.60;99.90;;;;;;5093324;28;20090;-80
2022/03/27 01:20:35;;;;;;;0.10;0.10;;;6.70;99.90;;;;;;5093629;28;20076;-80
2022/03/27 01:23:07;;;;;;;0.10;0.10;;;6.70;99.90;;;;;;5092947;28;20047;-79
2022/03/27 01:25:35;;;;;;;0.13;0.13;;;6.70;99.90;;;;;;5093505;28;20032;-79
2022/03/27 01:28:02;;;;;;;0.10;0.10;;;6.70;99.90;;;;;;5093164;28;20036;-80
2022/03/27 01:30:29;;;;;;;0.10;0.10;;;6.70;99.90;;;;;;5093292;28;20504;-80
2022/03/27 01:32:56;;;;;;;0.20;0.20;;;7.10;99.90;;;;;;5109593;28;20054;-81
2022/03/27 01:35:23;;;;;;;0.20;0.20;;;6.60;99.90;;;;;;5060488;28;20044;-80
2022/03/27 01:37:50;;;;;;;0.10;0.10;;;6.50;99.90;;;;;;5109620;28;20558;-80
2022/03/27 01:40:17;;;;;;;0.10;0.10;;;6.60;99.90;;;;;;5060034;28;20052;-80
2022/03/27 01:42:45;;;;;;;0.20;0.20;;;6.50;99.90;;;;;;5109499;28;20040;-79
2022/03/27 01:45:12;;;;;;;0.10;0.10;;;6.40;99.90;;;;;;5076456;28;20717;-80
2022/03/27 01:47:39;;;;;;;0.10;0.10;;;6.40;99.90;;;;;;5109818;28;20040;-80
2022/03/27 01:50:07;;;;;;;0.10;0.10;;;6.40;99.90;;;;;;5076419;28;20385;-80
2022/03/27 01:52:34;;;;;;;0.10;0.10;;;6.30;99.90;;;;;;5093005;28;20044;-80
2022/03/27 01:55:01;;;;;;;0.10;0.10;;;6.20;99.90;;;;;;5092461;28;20445;-79
2022/03/27 01:57:28;;;;;;;0.10;0.10;;;6.20;99.90;;;;;;5093045;28;20127;-80
2022/03/27 01:59:54;;;;;;;0.10;0.10;;;6.20;99.90;;;;;;5092676;28;20044;-80
2022/03/27 02:02:24;;;;;;;0.20;0.20;;;6.30;99.90;;;;;;5059900;28;20044;-80
2022/03/27 02:04:51;;;;;;;0.10;0.10;;;6.10;99.90;;;;;;5076616;28;20032;-79
2022/03/27 02:07:19;;;;;;;0.10;0.10;;;6.10;99.90;;;;;;5076787;28;20252;-80
2022/03/27 02:09:46;;;;;;;0.13;0.13;;;6.10;99.90;;;;;;5092459;28;20070;-80
2022/03/27 02:12:13;;;;;;;0.20;0.20;;;6.00;99.90;;;;;;5076063;28;20047;-79
2022/03/27 02:14:39;;;;;;;0.20;0.20;;;6.00;99.90;;;;;;5109470;28;20097;-79
2022/03/27 02:17:08;;;;;;;0.10;0.10;;;5.90;99.90;;;;;;5059139;28;20554;-79
2022/03/27 02:19:38;;;;;;;0.10;0.10;;;5.90;99.90;;;;;;5109755;28;20051;-79
2022/03/27 02:22:04;;;;;;;0.10;0.10;;;5.90;99.90;;;;;;5075789;28;20079;-79
2022/03/27 02:24:31;;;;;;;0.10;0.10;;;5.80;99.90;;;;;;5092801;28;20071;-79
2022/03/27 02:26:58;;;;;;;0.10;0.10;;;5.90;99.90;;;;;;5092222;28;20032;-79
2022/03/27 02:29:24;;;;;;;0.10;0.10;;;5.80;99.90;;;;;;5093006;28;20136;-80
2022/03/27 02:31:51;;;;;;;0.10;0.10;;;5.80;99.90;;;;;;5059144;28;20058;-80
2022/03/27 02:34:18;;;;;;;0.10;0.10;;;5.90;99.90;;;;;;5092560;28;20044;-80
2022/03/27 02:36:45;;;;;;;0.20;0.20;;;5.80;99.90;;;;;;5109399;28;20039;-80
2022/03/27 02:39:11;;;;;;;0.20;0.20;;;5.90;99.90;;;;;;5075925;28;20883;-80
2022/03/27 02:41:38;;;;;;;0.10;0.10;;;5.80;99.90;;;;;;5092447;28;20052;-79
2022/03/27 02:44:05;;;;;;;0.10;0.10;;;5.80;99.90;;;;;;5108895;28;20397;-79
2022/03/27 02:46:31;;;;;;;0.10;0.10;;;5.80;99.90;;;;;;5092080;28;20401;-80
2022/03/27 02:48:58;;;;;;;0.20;0.20;;;5.80;99.90;;;;;;5092177;28;20051;-80
2022/03/27 02:51:25;;;;;;;0.10;0.10;;;5.80;99.90;;;;;;5075696;28;20043;-80
2022/03/27 02:53:51;;;;;;;0.15;0.15;;;5.80;99.90;;;;;;5079420;28;20132;-80
2022/03/27 02:56:18;;;;;;;0.10;0.10;;;5.90;99.90;;;;;;5063338;28;20046;-79
2022/03/27 02:58:45;;;;;;;0.10;0.10;;;5.90;99.90;;;;;;5079541;28;20047;-80
2022/03/27 03:01:12;;;;;;;0.10;0.10;;;5.80;99.90;;;;;;5112183;28;20048;-80
2022/03/27 03:03:38;;;;;;;0.20;0.20;;;5.80;99.90;;;;;;5096546;28;20046;-80
2022/03/27 03:06:07;;;;;;;0.10;0.10;;;5.90;99.90;;;;;;5079127;28;20036;-80
2022/03/27 03:08:36;;;;;;;0.10;0.10;;;5.90;99.90;;;;;;5095763;28;20131;-80
2022/03/27 03:11:03;;;;;;;0.10;0.10;;;5.90;99.90;;;;;;5095818;28;20089;-79
2022/03/27 03:13:30;;;;;;;0.17;0.17;;;5.90;99.90;;;;;;5079482;28;20048;-80
2022/03/27 03:15:57;;;;;;;0.20;0.20;;;5.90;99.90;;;;;;5095818;28;20040;-79
2022/03/27 03:18:25;;;;;;;0.10;0.10;;;5.90;99.90;;;;;;5112769;28;20048;-80
2022/03/27 03:20:52;;;;;;;0.10;0.10;;;6.00;99.90;;;;;;5112463;28;20451;-80
2022/03/27 03:23:18;;;;;;;0.20;0.20;;;5.90;99.90;;;;;;5078941;28;20100;-80
2022/03/27 03:25:45;;;;;;;0.10;0.10;;;6.00;99.90;;;;;;5095709;28;20045;-79
2022/03/27 03:28:12;;;;;;;0.17;0.17;;;5.90;99.90;;;;;;5078796;28;20040;-79
2022/03/27 03:30:38;;;;;;;0.10;0.10;;;5.90;99.90;;;;;;5062697;28;20040;-80
2022/03/27 03:33:05;;;;;;;0.10;0.10;;;5.80;99.90;;;;;;5078716;28;20481;-80
2022/03/27 03:35:32;;;;;;;0.20;0.20;;;5.90;99.90;;;;;;5095582;28;20160;-79
2022/03/27 03:37:59;;;;;;;0.10;0.10;;;5.90;99.90;;;;;;5111824;28;20048;-79
2022/03/27 03:40:26;;;;;;;0.10;0.10;;;5.90;99.90;;;;;;5079390;28;20036;-79
2022/03/27 03:42:53;;;;;;;0.10;0.10;;;5.80;99.90;;;;;;5078679;28;20051;-80
2022/03/27 03:45:19;;;;;;;0.10;0.10;;;5.90;99.90;;;;;;5078550;28;20040;-80
2022/03/27 03:47:46;;;;;;;0.20;0.20;;;5.80;99.90;;;;;;5078958;28;20032;-80
2022/03/27 03:50:13;;;;;;;0.20;0.20;;;5.90;99.90;;;;;;5061689;28;20365;-80
2022/03/27 03:52:40;;;;;;;0.10;0.10;;;5.80;99.90;;;;;;5079091;28;20040;-80
2022/03/27 03:55:08;;;;;;;0.20;0.20;;;5.90;99.90;;;;;;5111667;28;20059;-80
2022/03/27 03:57:34;;;;;;;0.20;0.20;;;5.80;99.90;;;;;;5078878;28;20130;-79
2022/03/27 04:00:02;;;;;;;0.10;0.10;;;5.90;99.90;;;;;;5078339;28;20102;-79
2022/03/27 04:02:28;;;;;;;0.10;0.10;;;5.80;99.90;;;;;;5108940;28;20218;-80
2022/03/27 04:04:55;;;;;;;0.10;0.10;;;5.90;99.90;;;;;;5059129;28;20091;-80
2022/03/27 04:07:22;;;;;;;0.17;0.17;;;5.90;99.90;;;;;;5058391;28;20047;-79
2022/03/27 04:09:49;;;;;;;0.10;0.10;;;5.80;99.90;;;;;;5056891;28;20064;-80
2022/03/27 04:12:15;;;;;;;0.13;0.13;;;5.80;99.90;;;;;;5034959;28;20414;-79
2022/03/27 04:14:42;;;;;;;0.10;0.10;;;5.80;99.90;;;;;;5035224;28;20140;-80
2022/03/27 04:17:09;;;;;;;0.20;0.20;;;5.80;99.90;;;;;;5034810;28;20052;-80
2022/03/27 04:19:35;;;;;;;0.15;0.15;;;5.90;99.90;;;;;;5034960;28;20056;-80
2022/03/27 04:22:02;;;;;;;0.10;0.10;;;5.90;99.90;;;;;;5034764;28;20041;-80
2022/03/27 04:24:29;;;;;;;0.17;0.17;;;5.90;99.90;;;;;;5034480;28;20048;-79
2022/03/27 04:26:56;;;;;;;0.52;0.45;;;5.90;99.90;;;;;;5034930;28;20044;-80
2022/03/27 04:29:22;;;;;;;0.10;0.10;;;5.90;99.90;;;;;;5034835;28;20144;-79
2022/03/27 04:31:49;;;;;;;0.10;0.10;;;5.90;99.90;;;;;;5035147;28;20173;-79
2022/03/27 04:34:16;;;;;;;0.10;0.10;;;5.90;99.90;;;;;;5034555;28;20048;-80
2022/03/27 04:36:42;;;;;;;0.20;0.20;;;5.90;99.90;;;;;;5034775;28;20045;-79
2022/03/27 04:39:10;;;;;;;0.10;0.10;;;6.00;99.90;;;;;;5067175;28;20053;-79
2022/03/27 04:41:37;;;;;;;0.10;0.10;;;6.00;99.90;;;;;;5035231;28;20052;-79
2022/03/27 04:44:04;;;;;;;0.10;0.10;;;6.00;99.90;;;;;;5051122;28;20041;-80
2022/03/27 04:46:31;;;;;;;0.10;0.10;;;6.00;99.90;;;;;;5034558;28;20041;-80
2022/03/27 04:48:58;;;;;;;0.10;0.10;;;6.00;99.90;;;;;;5034283;28;20133;-80
2022/03/27 04:51:25;;;;;;;0.10;0.10;;;6.00;99.90;;;;;;5050595;28;20037;-79
2022/03/27 04:53:51;;;;;;;0.10;0.10;;;6.00;99.90;;;;;;5050624;28;20072;-80
2022/03/27 04:56:18;;;;;;;0.10;0.10;;;6.00;99.90;;;;;;5033965;28;20128;-80
2022/03/27 04:58:45;;;;;;;0.10;0.10;;;5.90;99.90;;;;;;5050507;28;20052;-80
2022/03/27 05:01:12;;;;;;;0.10;0.10;;;6.00;99.90;;;;;;5033859;28;20049;-80
2022/03/27 05:03:39;;;;;;;0.10;0.10;;;5.90;99.90;;;;;;5049969;28;20045;-80
2022/03/27 05:06:05;;;;;;;0.20;0.20;;;6.00;99.90;;;;;;5050445;28;20079;-80
2022/03/27 05:08:35;;;;;;;0.10;0.10;;;5.90;99.90;;;;;;5040729;28;20052;-80
2022/03/27 05:11:03;;;;;;;0.10;0.10;;;5.90;99.90;;;;;;5057686;28;20044;-79
2022/03/27 05:13:30;;;;;;;0.10;0.10;;;6.10;99.90;;;;;;5073182;28;20041;-80
2022/03/27 05:15:57;;;;;;;0.13;0.13;;;5.90;99.90;;;;;;5072928;28;20085;-80
2022/03/27 05:18:23;;;;;;;0.10;0.10;;;5.90;99.90;;;;;;5040286;28;20516;-80
2022/03/27 05:20:50;;;;;;;0.10;0.10;;;6.10;99.90;;;;;;5073087;28;20043;-80
2022/03/27 05:23:17;;;;;;;0.10;0.10;;;5.80;99.90;;;;;;5056272;28;20083;-79
2022/03/27 05:25:45;;;;;;;0.20;0.20;;;5.80;99.90;;;;;;5056675;28;20393;-80
2022/03/27 05:28:14;;;;;;;0.15;0.15;;;5.80;99.90;;;;;;5056722;28;20036;-80
2022/03/27 05:30:41;;;;;;;0.10;0.10;;;5.80;99.90;;;;;;5073301;28;20036;-80
2022/03/27 05:33:08;;;;;;;0.10;0.10;;;5.90;99.90;;;;;;5073095;28;20048;-79
2022/03/27 05:35:36;;;;;;;0.20;0.20;;;5.80;99.90;;;;;;5089712;28;20048;-80
2022/03/27 05:38:02;;;;;;;0.13;0.13;;;5.80;99.90;;;;;;5073130;28;20036;-80
2022/03/27 05:40:29;;;;;;;0.10;0.10;;;5.80;99.90;;;;;;5072887;28;20040;-80
2022/03/27 05:42:57;;;;;;;0.10;0.10;;;5.80;99.90;;;;;;5072695;28;20385;-80
2022/03/27 05:45:24;;;;;;;0.10;0.10;;;6.20;99.90;;;;;;5056465;28;20040;-80
2022/03/27 05:47:51;;;;;;;0.10;0.10;;;5.80;99.90;;;;;;5040055;28;20047;-80
2022/03/27 05:50:19;;;;;;;0.10;0.10;;;5.90;99.90;;;;;;5072161;28;20493;-80
2022/03/27 05:52:46;;;;;;;0.20;0.20;;;6.30;99.90;;;;;;5073105;28;20041;-80
2022/03/27 05:55:16;;;;;;;0.10;0.10;;;5.90;99.90;;;;;;5072816;28;20048;-80
2022/03/27 05:57:43;;;;;;;0.10;0.10;;;6.40;99.90;;;;;;5072479;28;20094;-79
2022/03/27 06:00:16;;;;;;;0.10;0.10;;;6.00;99.90;;;;;;5072974;28;20059;-79
2022/03/27 06:02:43;;;;;;;0.15;0.15;;;6.00;99.90;;;;;;5056495;28;20079;-80
2022/03/27 06:05:10;;;;;;;0.10;0.10;;;6.50;99.90;;;;;;5089475;28;20032;-80
2022/03/27 06:07:45;;;;;;;0.10;0.10;;;6.20;99.90;;;;;;5039281;28;20062;-80
2022/03/27 06:10:13;;;;;;;0.10;0.10;;;6.10;99.90;;;;;;5072475;28;20113;-81
2022/03/27 06:12:43;;;;;;;0.10;0.10;;;6.20;99.90;;;;;;5072083;28;20044;-79
2022/03/27 06:15:10;;;;;;;0.13;0.13;;;6.20;99.90;;;;;;5072451;28;20051;-81
2022/03/27 06:17:45;;;;;;;0.15;0.15;;;6.20;99.90;;;;;;5088704;28;20036;-80
2022/03/27 06:20:14;;;;;;;0.10;0.10;;;6.30;99.90;;;;;;5056185;28;20048;-80
2022/03/27 06:22:41;;;;;;;0.10;0.10;;;6.30;99.90;;;;;;5072307;28;20051;-79
2022/03/27 06:25:12;;;;;;;0.10;0.10;;;6.20;99.90;;;;;;5072523;28;20374;-80
2022/03/27 06:27:39;;;;;;;0.10;0.10;;;6.30;99.90;;;;;;5071869;28;20052;-81
2022/03/27 06:30:09;;;;;;;0.17;0.17;;;6.30;99.90;;;;;;5088963;28;20041;-79
2022/03/27 06:32:36;;;;;;;0.10;0.10;;;6.30;99.90;;;;;;5088668;28;20037;-80
2022/03/27 06:35:05;;;;;;;0.10;0.10;;;6.30;99.90;;;;;;5072291;28;20040;-80
2022/03/27 06:37:33;;;;;;;0.10;0.10;;;6.30;99.90;;;;;;5071605;28;20040;-79
2022/03/27 06:40:00;;;;;;;0.20;0.20;;;6.30;99.90;;;;;;5072252;28;20098;-80
2022/03/27 06:42:27;;;;;;;0.10;0.10;;;6.40;99.90;;;;;;5055563;28;20048;-79
2022/03/27 06:44:55;;;;;;;0.10;0.10;;;6.40;99.90;;;;;;5056072;28;20044;-79
2022/03/27 06:47:24;;;;;;;0.10;0.10;;;6.50;99.90;;;;;;5072062;28;20574;-79
2022/03/27 06:49:51;;;;;;;0.20;0.20;;;6.50;99.90;;;;;;5055256;28;20090;-79
2022/03/27 06:52:18;;;;;;;0.10;0.10;;;6.60;99.90;;;;;;5072015;28;20143;-80
2022/03/27 06:54:48;;;;;;;0.20;0.20;;;6.60;99.90;;;;;;5055796;28;20049;-80
2022/03/27 06:57:15;;;;;;;0.10;0.10;;;6.60;99.90;;;;;;5055527;28;20044;-80
2022/03/27 07:05:14;;;;;;;0.13;0.13;;;6.80;99.90;;;;;;5088603;28;20052;-80
2022/03/27 07:07:42;;;;;;;0.80;0.32;;;6.90;99.90;;;;;;5071840;28;20048;-80
2022/03/27 07:10:11;;;;;;;0.10;0.10;;;6.90;99.90;;;;;;5071886;28;20501;-80
2022/03/27 07:12:38;;;;;;;0.17;0.17;;;6.90;99.90;;;;;;5072014;28;20064;-80
2022/03/27 07:15:06;;;;;;;0.20;0.20;;;6.90;99.90;;;;;;5072101;28;20049;-80
2022/03/27 07:17:41;;;;;;;0.30;0.30;;;6.90;99.90;;;;;;5071765;28;20405;-80
2022/03/27 07:20:08;;;;;;;0.15;0.15;;;7.00;99.90;;;;;;5074733;28;20041;-80
2022/03/27 07:22:35;;;;;;;0.20;0.20;;;7.00;99.90;;;;;;5083305;28;20036;-80
2022/03/27 07:25:03;;;;;;;0.10;0.10;;;7.00;99.90;;;;;;5055185;28;20447;-79
2022/03/27 07:27:31;;;;;;;0.10;0.10;;;7.00;99.90;;;;;;5072403;28;20036;-81
2022/03/27 07:29:57;;;;;;;0.10;0.10;;;7.10;99.90;;;;;;5039022;28;20036;-80
2022/03/27 07:32:24;;;;;;;0.10;0.10;;;7.10;99.90;;;;;;5055178;28;20098;-80
2022/03/27 07:34:51;;;;;;;0.10;0.10;;;7.10;99.90;;;;;;5087825;28;20124;-79
2022/03/27 07:37:17;;;;;;;0.10;0.10;;;7.10;99.90;;;;;;5075546;28;20512;-80
2022/03/27 07:39:44;;;;;;;0.20;0.20;;;7.20;99.90;;;;;;5089253;28;20039;-80
2022/03/27 07:42:11;;;;;;;0.10;0.10;;;7.20;99.90;;;;;;5105366;28;20040;-80
2022/03/27 07:44:38;;;;;;;0.30;0.30;;;7.20;99.90;;;;;;5090590;28;20075;-80
2022/03/27 07:47:05;;;;;;;0.20;0.20;;;7.20;99.90;;;;;;5064171;28;20067;-80
2022/03/27 07:49:32;;;;;;;0.10;0.10;;;7.20;99.90;;;;;;5099717;28;20076;-79
2022/03/27 07:52:05;;;;;;;0.10;0.10;;;7.30;99.90;;;;;;5068867;28;20079;-80
2022/03/27 07:54:33;;;;;;;0.10;0.10;;;7.40;99.90;;;;;;5097220;28;20044;-80
2022/03/27 07:56:59;;;;;;;0.20;0.20;;;7.50;99.90;;;;;;5085578;28;20067;-80
2022/03/27 07:59:26;;;;;;;0.10;0.10;;;7.70;99.90;;;;;;5079384;28;20040;-80
2022/03/27 08:01:53;;;;;;;0.10;0.10;;;7.80;99.90;;;;;;5069495;28;20515;-80
2022/03/27 08:04:20;;;;;;;0.10;0.10;;;7.90;99.90;;;;;;5094611;28;20036;-80
2022/03/27 08:06:47;;;;;;;0.10;0.10;;;7.90;99.90;;;;;;5101026;28;20032;-80
2022/03/27 08:09:14;;;;;;;0.10;0.10;;;7.90;99.90;;;;;;5102324;28;20064;-79
2022/03/27 08:11:42;;;;;;;0.10;0.10;;;7.80;99.90;;;;;;5085780;28;20052;-80
2022/03/27 08:14:10;;;;;;;0.10;0.10;;;7.80;99.90;;;;;;5058261;28;20048;-79
2022/03/27 08:16:37;;;;;;;0.22;0.22;;;7.70;99.90;;;;;;5074822;28;20044;-79
2022/03/27 08:19:04;;;;;;;0.10;0.10;;;7.70;99.90;;;;;;5087550;28;20097;-79
2022/03/27 08:21:31;;;;;;;0.10;0.10;;;7.70;99.90;;;;;;5090804;28;20407;-80
2022/03/27 08:23:58;;;;;;;0.10;0.10;;;7.70;99.90;;;;;;5090445;28;20036;-78
2022/03/27 08:29:09;;;;;;;0.10;0.10;;;7.90;99.90;;;;;;5077621;28;20047;-81
2022/03/27 08:31:36;;;;;;;0.10;0.10;;;8.20;99.90;;;;;;5061639;28;20501;-80
2022/03/27 08:34:03;;;;;;;0.10;0.10;;;8.30;99.90;;;;;;5076792;28;20071;-78
2022/03/27 08:36:29;;;;;;;0.10;0.10;;;8.30;99.90;;;;;;5077682;28;20114;-79
2022/03/27 08:38:56;;;;;;;0.10;0.10;;;8.30;99.90;;;;;;5088786;28;20047;-81
2022/03/27 08:41:23;;;;;;;0.10;0.10;;;8.30;99.90;;;;;;5071888;28;20114;-80
2022/03/27 08:43:58;;;;;;;0.10;0.10;;;8.30;99.90;;;;;;5077019;28;20044;-79
2022/03/27 08:46:27;;;;;;;0.20;0.20;;;8.30;99.90;;;;;;5063358;28;20097;-80
2022/03/27 08:48:58;;;;;;;0.20;0.20;;;8.30;99.90;;;;;;5085612;28;20128;-80
2022/03/27 08:51:32;;;;;;;0.10;0.10;;;8.30;99.90;;;;;;5093359;28;20049;-79
2022/03/27 08:54:11;;;;;;;0.10;0.10;;;8.20;99.90;;;;;;5110087;28;20044;-79
2022/03/27 08:56:37;;;;;;;0.10;0.10;;;8.30;99.90;;;;;;5093900;28;20051;-79
2022/03/27 08:59:10;;;;;;;0.10;0.10;;;8.40;99.90;;;;;;5093637;28;20052;-80
2022/03/27 09:01:38;;;;;;;0.10;0.10;;;8.60;99.90;;;;;;5093683;28;20492;-79
2022/03/27 09:04:05;;;;;;;0.10;0.10;;;8.80;99.90;;;;;;5076707;28;20082;-79
2022/03/27 09:06:33;;;;;;;0.10;0.10;;;8.90;99.90;;;;;;5110351;28;20075;-79
2022/03/27 09:09:01;;;;;;;0.10;0.10;;;9.00;99.90;;;;;;5076813;28;20081;-79
2022/03/27 09:11:31;;;;;;;0.10;0.10;;;9.10;99.90;;;;;;5110039;28;20442;-79
2022/03/27 09:13:58;;;;;;;0.10;0.10;;;9.20;99.90;;;;;;5110068;28;20044;-79
2022/03/27 09:16:25;;;;;;;0.10;0.10;;;9.20;99.90;;;;;;5076898;28;20047;-80
2022/03/27 09:18:56;;;;;;;0.10;0.10;;;9.20;99.90;;;;;;5077084;28;20036;-79
2022/03/27 09:21:25;;;;;;;0.10;0.10;;;9.30;99.90;;;;;;5106836;28;20071;-80
2022/03/27 09:23:56;;;;;;;0.10;0.10;;;9.50;99.90;;;;;;5092805;28;20485;-80
2022/03/27 09:26:23;;;;;;;0.10;0.10;;;9.60;99.90;;;;;;5076759;28;20408;-80
2022/03/27 09:28:55;;;;;;;0.10;0.10;;;9.70;99.90;;;;;;5089368;28;20037;-78
2022/03/27 09:31:27;;;;;;;0.10;0.10;;;9.80;99.90;;;;;;5092885;28;20039;-79
2022/03/27 09:34:00;;;;;;;0.10;0.10;;;9.90;99.90;;;;;;5092407;28;20028;-80
2022/03/27 09:36:29;;;;;;;0.10;0.10;;;10.00;99.90;;;;;;5102782;28;20036;-80
2022/03/27 09:38:58;;;;;;;0.10;0.10;;;9.90;99.90;;;;;;5107756;28;20458;-79
2022/03/27 09:41:36;;;;;;;0.10;0.10;;;9.90;99.90;;;;;;5104080;28;20036;-80
2022/03/27 09:44:36;;;;;;;0.10;0.10;;;10.00;99.90;;;;;;5071522;28;20036;-82
2022/03/27 09:47:08;;;;;;;0.10;0.10;;;10.00;99.90;;;;;;5099124;28;20047;-80
2022/03/27 09:49:35;;;;;;;0.10;0.10;;;10.10;99.90;;;;;;5090478;28;20032;-80
2022/03/27 09:52:11;;;;;;;0.10;0.10;;;10.10;99.90;;;;;;5108935;28;20044;-82
2022/03/27 09:54:55;;;;;;;0.80;0.35;;;10.10;99.90;;;;;;5093268;28;20044;-81
2022/03/27 09:57:26;;;;;;;0.10;0.10;;;10.20;99.90;;;;;;5106591;28;20450;-82
2022/03/27 09:59:56;;;;;;;0.10;0.10;;;10.30;99.90;;;;;;5109128;28;20059;-81
2022/03/27 10:02:27;;;;;;;0.35;0.35;;;10.30;99.90;;;;;;5108040;28;20044;-79
2022/03/27 10:04:55;;;;;;;0.10;0.10;;;10.30;99.90;;;;;;5109206;28;20036;-79
2022/03/27 10:07:24;;;;;;;0.10;0.10;;;10.50;99.90;;;;;;5076024;28;20047;-81
2022/03/27 10:09:55;;;;;;;0.10;0.10;;;10.60;99.90;;;;;;5075467;28;20051;-82
2022/03/27 10:12:27;;;;;;;0.10;0.10;;;10.70;99.90;;;;;;5092220;28;20930;-82
2022/03/27 10:14:57;;;;;;;0.00;0.00;;;10.60;99.90;;;;;;5092617;28;20044;-80
2022/03/27 10:17:27;;;;;;;0.10;0.10;;;10.80;99.90;;;;;;5108978;28;20044;-79
2022/03/27 10:20:13;;;;;;;0.10;0.10;;;10.80;99.90;;;;;;5076034;28;20038;-81
2022/03/27 10:22:58;;;;;;;0.10;0.10;;;10.90;99.90;;;;;;5108754;28;20113;-79
2022/03/27 10:25:45;;;;;;;0.10;0.10;;;10.80;99.90;;;;;;5081035;28;20044;-79
2022/03/27 10:28:14;;;;;;;0.10;0.10;;;11.00;99.90;;;;;;5083512;28;20041;-80
2022/03/27 10:30:41;;;;;;;0.10;0.10;;;11.10;99.90;;;;;;5077849;28;20124;-82
2022/03/27 10:33:10;;;;;;;0.10;0.10;;;11.20;99.90;;;;;;5058892;28;20067;-80
2022/03/27 10:35:56;;;;;;;0.10;0.10;;;11.30;99.90;;;;;;5090875;28;20044;-80
2022/03/27 10:38:34;;;;;;;0.43;0.20;;;11.40;99.90;;;;;;5103237;28;20131;-80
2022/03/27 10:41:25;;;;;;;0.10;0.10;;;11.10;99.90;;;;;;5100471;28;20755;-81
2022/03/27 10:44:07;;;;;;;0.00;0.00;;;11.30;99.90;;;;;;5072184;28;20048;-81
2022/03/27 10:46:34;;;;;;;0.10;0.10;;;11.30;99.90;;;;;;5072102;28;20393;-82
2022/03/27 10:49:13;;;;;;;0.08;0.08;;;11.40;99.90;;;;;;5071847;28;20036;-81
2022/03/27 10:51:45;;;;;;;0.15;0.10;;;11.40;99.90;;;;;;5088587;28;20467;-82
2022/03/27 10:54:14;;;;;;;0.00;0.00;;;11.60;99.90;;;;;;5071598;28;20047;-81
2022/03/27 10:56:54;;;;;;;0.10;0.10;;;11.70;99.90;;;;;;5072358;28;20036;-81
2022/03/27 10:59:22;;;;;;;0.00;0.00;;;11.70;99.90;;;;;;5088444;28;20404;-83
2022/03/27 11:01:59;;;;;;;0.28;0.10;;;11.70;99.90;;;;;;5071881;28;20137;-81
2022/03/27 11:04:34;;;;;;;0.00;0.00;;;11.80;99.90;;;;;;5072176;28;20037;-80
2022/03/27 11:07:19;;;;;;;;;;;11.80;99.90;;;;;;5073956;28;20846;-80
2022/03/27 11:09:46;;;;;;;0.10;0.10;;;11.90;99.90;;;;;;5088087;28;19920;-80
2022/03/27 11:12:25;;;;;;;0.00;0.00;;;12.00;99.90;;;;;;5071799;28;20041;-82
2022/03/27 11:15:07;;;;;;;0.00;0.00;;;12.10;99.90;;;;;;5075741;28;20738;-80
2022/03/27 11:17:38;;;;;;;0.00;0.00;;;12.20;99.90;;;;;;5076201;28;20044;-82
2022/03/27 11:20:13;;;;;;;0.10;0.10;;;12.30;99.90;;;;;;5092242;28;20037;-82
2022/03/27 11:22:57;;;;;;;0.08;0.08;;;12.30;99.90;;;;;;5088881;28;20079;-81
2022/03/27 11:25:34;;;;;;;0.00;0.00;;;12.40;99.90;;;;;;5089205;28;20059;-82
2022/03/27 11:28:05;;;;;;;0.10;0.10;;;12.30;99.90;;;;;;5075685;28;20432;-80
2022/03/27 11:30:34;;;;;;;0.20;0.20;;;12.40;99.90;;;;;;5076206;28;20040;-80
2022/03/27 11:33:21;;;;;;;0.10;0.10;;;12.50;99.90;;;;;;5092466;28;20127;-80
2022/03/27 11:36:09;;;;;;;0.00;0.00;;;12.40;99.90;;;;;;5092132;28;20459;-82
2022/03/27 11:39:02;;;;;;;0.10;0.10;;;12.50;99.90;;;;;;5092122;28;20044;-82
2022/03/27 11:41:46;;;;;;;0.00;0.00;;;12.60;99.90;;;;;;5095248;28;20047;-80
2022/03/27 11:47:22;;;;;;;0.00;0.00;;;12.70;99.90;;;;;;5102420;28;20123;-82
2022/03/27 11:49:51;;;;;;;0.00;0.00;;;12.80;99.90;;;;;;5075460;28;20051;-82
2022/03/27 11:52:21;;;;;;;0.20;0.20;;;12.90;99.90;;;;;;5074951;28;20047;-81
2022/03/27 11:54:48;;;;;;;0.00;0.00;;;13.00;99.90;;;;;;5092270;28;20535;-80
2022/03/27 11:57:18;;;;;;;0.00;0.00;;;12.90;99.90;;;;;;5111925;28;20093;-81
2022/03/27 11:59:52;;;;;;;0.00;0.00;;;13.00;99.90;;;;;;5097849;28;20048;-83
2022/03/27 12:02:22;;;;;;;0.00;0.00;;;13.10;99.90;;;;;;5078292;28;20048;-81
2022/03/27 12:05:01;;;;;;;0.10;0.10;;;13.20;99.90;;;;;;5079031;28;20040;-80
2022/03/27 12:07:48;;;;;;;0.10;0.10;;;13.10;99.90;;;;;;5094892;28;20082;-81
2022/03/27 12:10:15;;;;;;;0.00;0.00;;;13.10;99.90;;;;;;5094463;28;20408;-79
2022/03/27 12:12:59;;;;;;;0.00;0.00;;;13.20;99.90;;;;;;5056226;28;20037;-79
2022/03/27 12:15:46;;;;;;;0.00;0.00;;;13.10;99.90;;;;;;5112067;28;20049;-83
2022/03/27 12:18:14;;;;;;;0.00;0.00;;;13.20;99.90;;;;;;5095740;28;20047;-83
2022/03/27 12:20:45;;;;;;;0.00;0.00;;;13.00;99.90;;;;;;5078951;28;20130;-83
2022/03/27 12:23:22;;;;;;;0.00;0.00;;;13.10;99.90;;;;;;5095358;28;20472;-83
2022/03/27 12:29:39;;;;;;;0.00;0.00;;;13.10;99.90;;;;;;5094287;28;20404;-85
2022/03/27 12:32:05;;;;;;;0.00;0.00;;;13.00;99.90;;;;;;5098375;28;20043;-86
2022/03/27 12:34:33;;;;;;;0.00;0.00;;;13.00;99.90;;;;;;5094695;28;20527;-85
2022/03/27 12:37:16;;;;;;;0.00;0.00;;;13.10;99.90;;;;;;5094529;28;20050;-83
2022/03/27 12:39:49;;;;;;;0.10;0.10;;;13.00;99.90;;;;;;5095032;28;20401;-85
2022/03/27 12:42:35;;;;;;;0.05;0.05;;;13.10;99.90;;;;;;5111067;28;20069;-84
2022/03/27 12:45:26;;;;;;;0.00;0.00;;;13.10;99.90;;;;;;5095062;28;20028;-83
2022/03/27 12:48:17;;;;;;;0.00;0.00;;;13.00;99.90;;;;;;5111630;28;20032;-85
2022/03/27 12:50:52;;;;;;;0.00;0.00;;;13.10;99.90;;;;;;5112203;28;20043;-84
2022/03/27 12:53:20;;;;;;;0.00;0.00;;;13.10;99.90;;;;;;5094715;28;20276;-83
2022/03/27 12:55:55;;;;;;;0.00;0.00;;;13.20;99.90;;;;;;5111289;28;20090;-83
2022/03/27 12:58:35;;;;;;;0.05;0.05;;;13.20;99.90;;;;;;5111201;28;20127;-83
2022/03/27 13:01:17;;;;;;;0.00;0.00;;;13.20;99.90;;;;;;5094762;28;20188;-85
2022/03/27 13:04:07;;;;;;;0.00;0.00;;;13.20;99.90;;;;;;5079481;28;20061;-85
2022/03/27 13:06:43;;;;;;;0.00;0.00;;;13.30;99.90;;;;;;5110593;28;20497;-83
2022/03/27 13:09:20;;;;;;;0.00;0.00;;;13.30;99.90;;;;;;5093844;28;20131;-83
2022/03/27 13:11:47;;;;;;;0.00;0.00;;;13.30;99.90;;;;;;5078035;28;20044;-83
2022/03/27 13:14:14;;;;;;;0.00;0.00;;;13.30;99.90;;;;;;5094264;28;20193;-83
2022/03/27 13:16:49;;;;;;;0.00;0.00;;;13.30;99.90;;;;;;5093680;28;20063;-83
2022/03/27 13:19:23;;;;;;;0.00;0.00;;;13.40;99.90;;;;;;5094211;28;20040;-83
2022/03/27 13:21:55;;;;;;;0.10;0.10;;;13.50;99.90;;;;;;5077506;28;20047;-85
2022/03/27 13:24:24;;;;;;;0.00;0.00;;;13.50;99.90;;;;;;5093849;28;20044;-83
2022/03/27 13:26:55;;;;;;;0.10;0.10;;;13.50;99.90;;;;;;5093731;28;20123;-85